Eships Agamid — ZDHS9 — position and weather

sailwx.info

Track history (hours):
 
Tides and Currents Weather Stations Pressure Air Temp Water Temp Dewpoint Dewpoint Depression Visibility Wind Speed Wind Dir Waves Ship Positions

Eships Agamid

Last reported at 2015-Aug-31 19:10 UTC. Time now 2015-Aug-31 19:46 UTC.
Position N 52°25' E 003°57'.

Length 128 m; draft 6 m.

Type: Tanker. MMSI: 236355000.

Date/timePositionNaut miles runAvg speedWind from/ knotsBaromVisibWave heightAir tempDewpointWater temp
2015-Aug-31 19:10N 52°25' E 003°57'0 0.0
2015-Aug-31 16:04N 52°25' E 003°57'0 0.0
2015-Aug-31 15:28N 52°25' E 003°57'0 0.0
2015-Aug-31 14:16N 52°25' E 003°57'0 0.2
2015-Aug-31 13:31N 52°25' E 003°57'0 0.0
2015-Aug-31 12:22N 52°25' E 003°57'0 0.0
2015-Aug-31 11:31N 52°25' E 003°57'0 0.0
2015-Aug-31 10:31N 52°25' E 003°57'0 0.0
2015-Aug-31 09:31N 52°25' E 003°57'0 0.0
2015-Aug-31 08:28N 52°25' E 003°57'0 0.0
2015-Aug-31 07:28N 52°25' E 003°57'0 0.0
2015-Aug-31 06:31N 52°25' E 003°57'0 0.1
2015-Aug-31 05:16N 52°25' E 003°57'0 0.0
2015-Aug-31 04:31N 52°25' E 003°57'0 0.0
2015-Aug-31 03:31N 52°25' E 003°57'0 0.0
2015-Aug-31 02:28N 52°25' E 003°57'0 0.2
2015-Aug-31 01:31N 52°25' E 003°56'0 0.0
2015-Aug-31 00:31N 52°25' E 003°56'0 0.0
2015-Aug-30 23:28N 52°25' E 003°56'0 0.0
2015-Aug-30 22:28N 52°25' E 003°56'0 0.0
2015-Aug-30 21:28N 52°25' E 003°56'0 0.0
2015-Aug-30 20:22N 52°25' E 003°57'0 0.0
2015-Aug-30 19:28N 52°25' E 003°57'3 3.1
2015-Aug-30 18:33N 52°28' E 003°54'1312.4
2015-Aug-30 17:32N 52°40' E 003°54'1211.8
2015-Aug-30 16:33N 52°52' E 003°58'7712.1
2015-Aug-30 10:13N 54°00' E 004°55'911.2
2015-Aug-30 09:27N 54°08' E 005°01'1010.6
2015-Aug-30 08:29N 54°16' E 005°12'2311.0
2015-Aug-30 06:25N 54°34' E 005°35'1010.9
2015-Aug-30 05:32N 54°42' E 005°45'1110.9
2015-Aug-30 04:33N 54°51' E 005°56'1511.7
2015-Aug-30 03:17N 55°03' E 006°11'710.0
2015-Aug-30 02:32N 55°09' E 006°19'1111.1
2015-Aug-30 01:30N 55°18' E 006°31'1010.9
2015-Aug-30 00:33N 55°27' E 006°41'1110.9
2015-Aug-29 23:33N 55°37' E 006°49'3611.0
2015-Aug-29 20:16N 56°10' E 007°15'811.0
2015-Aug-29 19:33N 56°17' E 007°20'136 9.4
2015-Aug-29 05:07N 57°52' E 010°19'5 8.9
2015-Aug-29 04:33N 57°52' E 010°29'9 8.7
2015-Aug-29 03:33N 57°50' E 010°45'10 9.5
2015-Aug-29 02:33N 57°43' E 010°58'10 9.9
2015-Aug-29 01:33N 57°36' E 011°11'1010.1
2015-Aug-29 00:33N 57°29' E 011°24'1010.5
2015-Aug-28 23:33N 57°20' E 011°32'1110.9
2015-Aug-28 22:32N 57°09' E 011°39'1110.9
2015-Aug-28 21:33N 56°59' E 011°45'1110.8
2015-Aug-28 20:33N 56°49' E 011°52'1110.7
2015-Aug-28 19:33N 56°39' E 011°57'2210.6
2015-Aug-28 17:32N 56°18' E 012°06'1010.5
2015-Aug-28 16:33N 56°12' E 012°21'10 9.7
2015-Aug-28 15:33N 56°06' E 012°35'1010.4
2015-Aug-28 14:33N 55°56' E 012°39'1212.1
2015-Aug-28 13:33N 55°44' E 012°41'1111.0
2015-Aug-28 12:33N 55°33' E 012°42'8 8.3
2015-Aug-28 11:33N 55°24' E 012°41'9 9.2
2015-Aug-28 10:33N 55°17' E 012°50'1110.6
2015-Aug-28 09:33N 55°15' E 013°08'2110.5
2015-Aug-28 07:33N 55°14' E 013°45'1010.3
2015-Aug-28 06:33N 55°14' E 014°03'9 9.5
2015-Aug-28 05:33N 55°15' E 014°20'1010.4
2015-Aug-28 04:33N 55°23' E 014°31'1110.5
2015-Aug-28 03:33N 55°29' E 014°46'1110.6
2015-Aug-28 02:33N 55°34' E 015°02'1110.7
2015-Aug-28 01:33N 55°39' E 015°19'13610.4
2015-Aug-27 12:33N 56°58' E 018°37'1010.1
2015-Aug-27 11:33N 57°06' E 018°49'2110.3
2015-Aug-27 09:33N 57°22' E 019°13'1110.7
2015-Aug-27 08:33N 57°31' E 019°25'1110.8
2015-Aug-27 07:33N 57°39' E 019°38'1210.9
2015-Aug-27 06:29N 57°48' E 019°51'14810.4
2015-Aug-26 16:15N 59°36' E 023°06'710.1
2015-Aug-26 15:33N 59°37' E 023°20'10 9.8
2015-Aug-26 14:33N 59°39' E 023°39'28 0.9
2015-Aug-25 07:30N 59°29' E 024°31'0 0.0
2015-Aug-25 01:12N 59°29' E 024°32'0 0.0
2015-Aug-24 18:21N 59°29' E 024°32'5 5.0
2015-Aug-24 17:17N 59°30' E 024°21'912.1
2015-Aug-24 16:34N 59°38' E 024°14'1110.5
2015-Aug-24 15:33N 59°47' E 024°24'1413.6
2015-Aug-24 14:31N 59°50' E 024°51'1313.2
2015-Aug-24 13:33N 59°52' E 025°17'1313.2
2015-Aug-24 12:33N 59°55' E 025°42'1812.9
2015-Aug-24 11:11N 60°04' E 026°13'913.9
2015-Aug-24 10:33N 60°11' E 026°22'1313.2
2015-Aug-24 09:33N 60°21' E 026°39'1313.2
2015-Aug-24 08:33N 60°21' E 027°06'1110.8
2015-Aug-24 07:33N 60°31' E 027°10'0 0.1
2015-Aug-24 06:15N 60°31' E 027°10'0 0.0
2015-Aug-24 05:33N 60°31' E 027°10'0 0.0
2015-Aug-24 04:29N 60°31' E 027°10'0 0.0
2015-Aug-24 03:33N 60°31' E 027°10'0 0.0
2015-Aug-24 02:27N 60°31' E 027°10'0 0.0
2015-Aug-24 00:29N 60°31' E 027°10'0 0.0
2015-Aug-23 23:21N 60°31' E 027°10'0 0.0
2015-Aug-23 22:22N 60°31' E 027°10'0 0.0
2015-Aug-23 21:32N 60°31' E 027°10'0 0.0
2015-Aug-23 20:33N 60°31' E 027°10'0 0.0
2015-Aug-23 19:33N 60°31' E 027°10'0 0.0
2015-Aug-23 18:33N 60°31' E 027°10'0 0.0
2015-Aug-23 17:33N 60°31' E 027°10'0 0.0
2015-Aug-23 16:27N 60°31' E 027°10'0 0.0
2015-Aug-23 15:30N 60°31' E 027°10'0 0.0
2015-Aug-23 13:14N 60°31' E 027°10'3 3.9
2015-Aug-23 12:33N 60°29' E 027°13'1010.1
2015-Aug-23 11:32N 60°20' E 027°03'1313.2
2015-Aug-23 10:34N 60°12' E 026°43'1010.2
2015-Aug-23 09:33N 60°06' E 026°27'9 9.2
2015-Aug-23 08:33N 59°60' E 026°13'1110.8
2015-Aug-23 07:33N 59°53' E 025°56'1111.1
2015-Aug-23 06:33N 59°51' E 025°34'1111.1
2015-Aug-23 05:34N 59°49' E 025°13'1111.2
2015-Aug-23 04:34N 59°46' E 024°51'1111.1
2015-Aug-23 03:34N 59°44' E 024°29'1211.0
2015-Aug-23 02:26N 59°41' E 024°06'1011.3
2015-Aug-23 01:34N 59°37' E 023°48'1111.1
2015-Aug-23 00:34N 59°33' E 023°27'1111.3
2015-Aug-22 23:34N 59°30' E 023°06'1111.2
2015-Aug-22 22:33N 59°26' E 022°45'2411.1
2015-Aug-22 20:22N 59°12' E 022°05'1011.4
2015-Aug-22 19:27N 59°06' E 021°50'9011.0
2015-Aug-22 11:17N 57°54' E 020°08'811.2
2015-Aug-22 10:34N 57°47' E 019°58'1111.1
2015-Aug-22 09:33N 57°39' E 019°45'1111.1
2015-Aug-22 08:33N 57°30' E 019°32'1110.9
2015-Aug-22 07:33N 57°22' E 019°20'1211.0
2015-Aug-22 06:28N 57°12' E 019°06'2210.7
2015-Aug-22 04:25N 56°55' E 018°40'1310.7
2015-Aug-22 03:11N 56°46' E 018°24'710.9
2015-Aug-22 02:33N 56°42' E 018°14'1111.0
2015-Aug-22 01:34N 56°35' E 017°58'1111.0
2015-Aug-22 00:34N 56°28' E 017°43'1111.1
2015-Aug-21 23:34N 56°21' E 017°27'1111.1
2015-Aug-21 22:34N 56°14' E 017°11'1111.0
2015-Aug-21 21:34N 56°08' E 016°56'1111.0
2015-Aug-21 20:34N 56°01' E 016°40'1110.9
2015-Aug-21 19:34N 55°56' E 016°23'  
Track history (hours):
 
Tides and Currents Weather Stations Pressure Air Temp Water Temp Dewpoint Dewpoint Depression Visibility Wind Speed Wind Dir Waves Ship Positions

Eships Agamid

Last reported at 2015-Aug-31 19:10 UTC. Time now 2015-Aug-31 19:46 UTC.
Position N 52°25' E 003°57'.

Length 128 m; draft 6 m.

Type: Tanker. MMSI: 236355000.

Date/timePositionNaut miles runAvg speedWind from/ knotsBaromVisibWave heightAir tempDewpointWater temp
2015-Aug-31 19:10N 52°25' E 003°57'0 0.0
2015-Aug-31 16:04N 52°25' E 003°57'0 0.0
2015-Aug-31 15:28N 52°25' E 003°57'0 0.0
2015-Aug-31 14:16N 52°25' E 003°57'0 0.2
2015-Aug-31 13:31N 52°25' E 003°57'0 0.0
2015-Aug-31 12:22N 52°25' E 003°57'0 0.0
2015-Aug-31 11:31N 52°25' E 003°57'0 0.0
2015-Aug-31 10:31N 52°25' E 003°57'0 0.0
2015-Aug-31 09:31N 52°25' E 003°57'0 0.0
2015-Aug-31 08:28N 52°25' E 003°57'0 0.0
2015-Aug-31 07:28N 52°25' E 003°57'0 0.0
2015-Aug-31 06:31N 52°25' E 003°57'0 0.1
2015-Aug-31 05:16N 52°25' E 003°57'0 0.0
2015-Aug-31 04:31N 52°25' E 003°57'0 0.0
2015-Aug-31 03:31N 52°25' E 003°57'0 0.0
2015-Aug-31 02:28N 52°25' E 003°57'0 0.2
2015-Aug-31 01:31N 52°25' E 003°56'0 0.0
2015-Aug-31 00:31N 52°25' E 003°56'0 0.0
2015-Aug-30 23:28N 52°25' E 003°56'0 0.0
2015-Aug-30 22:28N 52°25' E 003°56'0 0.0
2015-Aug-30 21:28N 52°25' E 003°56'0 0.0
2015-Aug-30 20:22N 52°25' E 003°57'0 0.0
2015-Aug-30 19:28N 52°25' E 003°57'3 3.1
2015-Aug-30 18:33N 52°28' E 003°54'1312.4
2015-Aug-30 17:32N 52°40' E 003°54'1211.8
2015-Aug-30 16:33N 52°52' E 003°58'7712.1
2015-Aug-30 10:13N 54°00' E 004°55'911.2
2015-Aug-30 09:27N 54°08' E 005°01'1010.6
2015-Aug-30 08:29N 54°16' E 005°12'2311.0
2015-Aug-30 06:25N 54°34' E 005°35'1010.9
2015-Aug-30 05:32N 54°42' E 005°45'1110.9
2015-Aug-30 04:33N 54°51' E 005°56'1511.7
2015-Aug-30 03:17N 55°03' E 006°11'710.0
2015-Aug-30 02:32N 55°09' E 006°19'1111.1
2015-Aug-30 01:30N 55°18' E 006°31'1010.9
2015-Aug-30 00:33N 55°27' E 006°41'1110.9
2015-Aug-29 23:33N 55°37' E 006°49'3611.0
2015-Aug-29 20:16N 56°10' E 007°15'811.0
2015-Aug-29 19:33N 56°17' E 007°20'136 9.4
2015-Aug-29 05:07N 57°52' E 010°19'5 8.9
2015-Aug-29 04:33N 57°52' E 010°29'9 8.7
2015-Aug-29 03:33N 57°50' E 010°45'10 9.5
2015-Aug-29 02:33N 57°43' E 010°58'10 9.9
2015-Aug-29 01:33N 57°36' E 011°11'1010.1
2015-Aug-29 00:33N 57°29' E 011°24'1010.5
2015-Aug-28 23:33N 57°20' E 011°32'1110.9
2015-Aug-28 22:32N 57°09' E 011°39'1110.9
2015-Aug-28 21:33N 56°59' E 011°45'1110.8
2015-Aug-28 20:33N 56°49' E 011°52'1110.7
2015-Aug-28 19:33N 56°39' E 011°57'2210.6
2015-Aug-28 17:32N 56°18' E 012°06'1010.5
2015-Aug-28 16:33N 56°12' E 012°21'10 9.7
2015-Aug-28 15:33N 56°06' E 012°35'1010.4
2015-Aug-28 14:33N 55°56' E 012°39'1212.1
2015-Aug-28 13:33N 55°44' E 012°41'1111.0
2015-Aug-28 12:33N 55°33' E 012°42'8 8.3
2015-Aug-28 11:33N 55°24' E 012°41'9 9.2
2015-Aug-28 10:33N 55°17' E 012°50'1110.6
2015-Aug-28 09:33N 55°15' E 013°08'2110.5
2015-Aug-28 07:33N 55°14' E 013°45'1010.3
2015-Aug-28 06:33N 55°14' E 014°03'9 9.5
2015-Aug-28 05:33N 55°15' E 014°20'1010.4
2015-Aug-28 04:33N 55°23' E 014°31'1110.5
2015-Aug-28 03:33N 55°29' E 014°46'1110.6
2015-Aug-28 02:33N 55°34' E 015°02'1110.7
2015-Aug-28 01:33N 55°39' E 015°19'13610.4
2015-Aug-27 12:33N 56°58' E 018°37'1010.1
2015-Aug-27 11:33N 57°06' E 018°49'2110.3
2015-Aug-27 09:33N 57°22' E 019°13'1110.7
2015-Aug-27 08:33N 57°31' E 019°25'1110.8
2015-Aug-27 07:33N 57°39' E 019°38'1210.9
2015-Aug-27 06:29N 57°48' E 019°51'14810.4
2015-Aug-26 16:15N 59°36' E 023°06'710.1
2015-Aug-26 15:33N 59°37' E 023°20'10 9.8
2015-Aug-26 14:33N 59°39' E 023°39'28 0.9
2015-Aug-25 07:30N 59°29' E 024°31'0 0.0
2015-Aug-25 01:12N 59°29' E 024°32'0 0.0
2015-Aug-24 18:21N 59°29' E 024°32'5 5.0
2015-Aug-24 17:17N 59°30' E 024°21'912.1
2015-Aug-24 16:34N 59°38' E 024°14'1110.5
2015-Aug-24 15:33N 59°47' E 024°24'1413.6
2015-Aug-24 14:31N 59°50' E 024°51'1313.2
2015-Aug-24 13:33N 59°52' E 025°17'1313.2
2015-Aug-24 12:33N 59°55' E 025°42'1812.9
2015-Aug-24 11:11N 60°04' E 026°13'913.9
2015-Aug-24 10:33N 60°11' E 026°22'1313.2
2015-Aug-24 09:33N 60°21' E 026°39'1313.2
2015-Aug-24 08:33N 60°21' E 027°06'1110.8
2015-Aug-24 07:33N 60°31' E 027°10'0 0.1
2015-Aug-24 06:15N 60°31' E 027°10'0 0.0
2015-Aug-24 05:33N 60°31' E 027°10'0 0.0
2015-Aug-24 04:29N 60°31' E 027°10'0 0.0
2015-Aug-24 03:33N 60°31' E 027°10'0 0.0
2015-Aug-24 02:27N 60°31' E 027°10'0 0.0
2015-Aug-24 00:29N 60°31' E 027°10'0 0.0
2015-Aug-23 23:21N 60°31' E 027°10'0 0.0
2015-Aug-23 22:22N 60°31' E 027°10'0 0.0
2015-Aug-23 21:32N 60°31' E 027°10'0 0.0
2015-Aug-23 20:33N 60°31' E 027°10'0 0.0
2015-Aug-23 19:33N 60°31' E 027°10'0 0.0
2015-Aug-23 18:33N 60°31' E 027°10'0 0.0
2015-Aug-23 17:33N 60°31' E 027°10'0 0.0
2015-Aug-23 16:27N 60°31' E 027°10'0 0.0
2015-Aug-23 15:30N 60°31' E 027°10'0 0.0
2015-Aug-23 13:14N 60°31' E 027°10'3 3.9
2015-Aug-23 12:33N 60°29' E 027°13'1010.1
2015-Aug-23 11:32N 60°20' E 027°03'1313.2
2015-Aug-23 10:34N 60°12' E 026°43'1010.2
2015-Aug-23 09:33N 60°06' E 026°27'9 9.2
2015-Aug-23 08:33N 59°60' E 026°13'1110.8
2015-Aug-23 07:33N 59°53' E 025°56'1111.1
2015-Aug-23 06:33N 59°51' E 025°34'1111.1
2015-Aug-23 05:34N 59°49' E 025°13'1111.2
2015-Aug-23 04:34N 59°46' E 024°51'1111.1
2015-Aug-23 03:34N 59°44' E 024°29'1211.0
2015-Aug-23 02:26N 59°41' E 024°06'1011.3
2015-Aug-23 01:34N 59°37' E 023°48'1111.1
2015-Aug-23 00:34N 59°33' E 023°27'1111.3
2015-Aug-22 23:34N 59°30' E 023°06'1111.2
2015-Aug-22 22:33N 59°26' E 022°45'2411.1
2015-Aug-22 20:22N 59°12' E 022°05'1011.4
2015-Aug-22 19:27N 59°06' E 021°50'9011.0
2015-Aug-22 11:17N 57°54' E 020°08'811.2
2015-Aug-22 10:34N 57°47' E 019°58'1111.1
2015-Aug-22 09:33N 57°39' E 019°45'1111.1
2015-Aug-22 08:33N 57°30' E 019°32'1110.9
2015-Aug-22 07:33N 57°22' E 019°20'1211.0
2015-Aug-22 06:28N 57°12' E 019°06'2210.7
2015-Aug-22 04:25N 56°55' E 018°40'1310.7
2015-Aug-22 03:11N 56°46' E 018°24'710.9
2015-Aug-22 02:33N 56°42' E 018°14'1111.0
2015-Aug-22 01:34N 56°35' E 017°58'1111.0
2015-Aug-22 00:34N 56°28' E 017°43'1111.1
2015-Aug-21 23:34N 56°21' E 017°27'1111.1
2015-Aug-21 22:34N 56°14' E 017°11'1111.0
2015-Aug-21 21:34N 56°08' E 016°56'1111.0
2015-Aug-21 20:34N 56°01' E 016°40'1110.9
2015-Aug-21 19:34N 55°56' E 016°23'  

Dump ship's entire track history